Monticello, Minnesota
Current Conditions -  °F | °C
As of 12:35 PM on Sunday 21 Dec 2014 (Local Time) from KCFE Reporting Station
Haze Haze  
Wind Chill: 28°   Ceiling: 300
Heat Index: 35°   Visibility: 1.5mi
Dew Point: 33°   Wind: 8mph
Humidity: 94%   Direction: 140°SE
Pressure: 29.76"   Gusts: 17mph
Location:  45.3°N, 93.8°W
Report Text: KCFE 211835Z AUTO 14007G15KT 1 1/2SM BR OVC003 02/01 A2976 RMK AO2 T00150007
Loading
Personal Weather Stations






























Interactive Weather Map New forecast layout! Learn more

10-Day Weather Forecast

Advertisements
Track Severe Weather on mobile